createdAt,value
2018-10-06T00:00:53.710Z,6.53
2018-10-06T00:03:22.931Z,6.33
2018-10-06T00:05:52.143Z,6.40
2018-10-06T00:08:21.382Z,5.07
2018-10-06T00:10:50.654Z,5.70
2018-10-06T00:13:19.877Z,5.27
2018-10-06T00:15:49.075Z,5.07
2018-10-06T00:18:18.288Z,5.58
2018-10-06T00:20:47.541Z,4.90
2018-10-06T00:23:16.754Z,5.83
2018-10-06T00:25:45.986Z,5.33
2018-10-06T00:28:15.244Z,5.70
2018-10-06T00:30:44.459Z,6.00
2018-10-06T00:33:13.705Z,6.30
2018-10-06T00:35:42.919Z,5.97
2018-10-06T00:38:12.190Z,5.60
2018-10-06T00:40:41.418Z,5.20
2018-10-06T00:43:10.647Z,5.23
2018-10-06T00:45:39.875Z,5.10
2018-10-06T00:48:09.229Z,5.40
2018-10-06T00:50:38.590Z,5.40
2018-10-06T00:53:07.915Z,5.70
2018-10-06T00:55:37.126Z,5.93
2018-10-06T00:58:06.346Z,6.47
2018-10-06T01:00:35.554Z,6.10
2018-10-06T01:03:04.778Z,5.37
2018-10-06T01:05:34.009Z,5.33
2018-10-06T01:08:03.230Z,5.33
2018-10-06T01:10:32.470Z,7.30
2018-10-06T01:13:01.703Z,5.43
2018-10-06T01:15:30.929Z,5.47
2018-10-06T01:18:00.167Z,5.50
2018-10-06T01:20:29.398Z,5.07
2018-10-06T01:22:58.645Z,5.47
2018-10-06T01:25:27.874Z,6.00
2018-10-06T01:27:57.110Z,6.57
2018-10-06T01:30:26.314Z,6.67
2018-10-06T01:32:55.534Z,6.17
2018-10-06T01:35:24.749Z,5.70
2018-10-06T01:37:54.029Z,5.77
2018-10-06T01:40:23.246Z,5.53
2018-10-06T01:42:52.471Z,4.87
2018-10-06T01:45:22.377Z,4.30
2018-10-06T01:47:51.595Z,4.43
2018-10-06T01:50:20.812Z,4.65
2018-10-06T01:52:50.044Z,4.63
2018-10-06T01:55:19.275Z,4.20
2018-10-06T01:57:48.494Z,4.80
2018-10-06T02:00:17.709Z,5.03
2018-10-06T02:02:46.950Z,4.57
2018-10-06T02:05:16.179Z,4.90
2018-10-06T02:07:45.403Z,4.80
2018-10-06T02:10:14.639Z,5.00
2018-10-06T02:12:43.851Z,4.83
2018-10-06T02:15:13.095Z,4.67
2018-10-06T02:17:42.603Z,5.00
2018-10-06T02:20:11.822Z,4.67
2018-10-06T02:22:41.034Z,4.72
2018-10-06T02:25:10.243Z,4.87
2018-10-06T02:27:39.449Z,4.57
2018-10-06T02:30:08.691Z,4.63
2018-10-06T02:32:37.863Z,4.63
2018-10-06T02:35:07.087Z,4.60
2018-10-06T02:37:36.307Z,4.20
2018-10-06T02:40:05.540Z,4.93
2018-10-06T02:42:34.770Z,4.63
2018-10-06T02:45:03.995Z,4.70
2018-10-06T02:47:33.213Z,4.70
2018-10-06T02:50:02.422Z,4.37
2018-10-06T02:52:31.655Z,4.78
2018-10-06T02:55:01.184Z,4.57
2018-10-06T02:57:30.398Z,4.27
2018-10-06T02:59:59.614Z,3.80
2018-10-06T03:02:28.841Z,4.65
2018-10-06T03:04:58.242Z,4.10
2018-10-06T03:07:27.477Z,4.10
2018-10-06T03:09:56.731Z,4.13
2018-10-06T03:12:25.957Z,4.40
2018-10-06T03:14:55.219Z,3.80
2018-10-06T03:17:24.439Z,4.70
2018-10-06T03:19:53.652Z,4.00
2018-10-06T03:22:23.009Z,4.33
2018-10-06T03:24:52.201Z,4.13
2018-10-06T03:27:21.419Z,4.07
2018-10-06T03:29:50.651Z,4.03
2018-10-06T03:32:19.873Z,3.97
2018-10-06T03:34:49.173Z,4.23
2018-10-06T03:37:18.359Z,4.13
2018-10-06T03:39:47.602Z,3.80
2018-10-06T03:42:16.822Z,4.20
2018-10-06T03:44:47.270Z,3.60
2018-10-06T03:47:16.511Z,4.50
2018-10-06T03:49:45.750Z,4.10
2018-10-06T03:52:14.991Z,3.93
2018-10-06T03:54:44.194Z,3.87
2018-10-06T03:57:13.433Z,4.30
2018-10-06T03:59:42.656Z,4.50
2018-10-06T04:02:11.863Z,4.62
2018-10-06T04:04:41.086Z,4.63
2018-10-06T04:07:10.318Z,4.23
2018-10-06T04:09:39.542Z,4.50
2018-10-06T04:12:08.766Z,4.50
2018-10-06T04:14:37.986Z,4.13
2018-10-06T04:17:07.304Z,4.40
2018-10-06T04:19:36.786Z,3.73
2018-10-06T04:22:06.011Z,4.10
2018-10-06T04:24:35.230Z,3.90
2018-10-06T04:27:04.470Z,4.10
2018-10-06T04:29:33.687Z,4.10
2018-10-06T04:32:02.896Z,3.87
2018-10-06T04:34:32.126Z,4.20
2018-10-06T04:37:01.372Z,4.27
2018-10-06T04:39:30.603Z,3.80
2018-10-06T04:41:59.842Z,3.70
2018-10-06T04:44:29.062Z,3.50
2018-10-06T04:46:58.291Z,3.67
2018-10-06T04:49:27.527Z,3.37
2018-10-06T04:51:56.737Z,3.40
2018-10-06T04:54:25.982Z,3.00
2018-10-06T04:56:55.219Z,3.70
2018-10-06T04:59:24.457Z,3.57
2018-10-06T05:01:53.700Z,3.40
2018-10-06T05:04:22.958Z,4.10
2018-10-06T05:06:52.201Z,3.83
2018-10-06T05:09:22.961Z,3.70
2018-10-06T05:11:52.199Z,4.13
2018-10-06T05:14:21.430Z,3.80
2018-10-06T05:16:50.654Z,3.70
2018-10-06T05:19:19.891Z,3.97
2018-10-06T05:21:49.099Z,4.67
2018-10-06T05:24:18.326Z,3.60
2018-10-06T05:26:47.542Z,4.30
2018-10-06T05:29:16.773Z,3.70
2018-10-06T05:31:46.023Z,4.00
2018-10-06T05:34:15.279Z,3.23
2018-10-06T05:36:44.489Z,3.50
2018-10-06T05:39:13.692Z,3.23
2018-10-06T05:41:42.907Z,3.43
2018-10-06T05:44:12.131Z,3.30
2018-10-06T05:46:41.358Z,4.00
2018-10-06T05:49:10.576Z,3.50
2018-10-06T05:51:39.778Z,3.70
2018-10-06T05:54:09.006Z,4.10
2018-10-06T05:56:38.220Z,3.60
2018-10-06T05:59:07.566Z,3.73
2018-10-06T06:01:36.746Z,3.20
2018-10-06T06:04:05.965Z,3.40
2018-10-06T06:06:35.179Z,3.53
2018-10-06T06:09:04.816Z,3.00
2018-10-06T06:11:34.064Z,3.20
2018-10-06T06:14:03.294Z,2.90
2018-10-06T06:16:32.531Z,2.80
2018-10-06T06:19:01.773Z,2.80
2018-10-06T06:21:30.978Z,3.00
2018-10-06T06:24:00.297Z,2.70
2018-10-06T06:26:29.479Z,2.37
2018-10-06T06:28:58.890Z,2.10
2018-10-06T06:31:28.592Z,2.40
2018-10-06T06:33:57.795Z,2.30
2018-10-06T06:36:27.023Z,2.53
2018-10-06T06:39:02.872Z,2.60
2018-10-06T06:41:32.108Z,2.27
2018-10-06T06:44:01.369Z,2.10
2018-10-06T06:46:30.589Z,2.77
2018-10-06T06:48:59.923Z,2.80
2018-10-06T06:51:29.114Z,3.25
2018-10-06T06:53:58.325Z,3.13
2018-10-06T06:56:27.562Z,3.87
2018-10-06T06:58:56.862Z,3.95
2018-10-06T07:01:26.095Z,3.95
2018-10-06T07:03:55.323Z,4.10
2018-10-06T07:06:24.546Z,4.17
2018-10-06T07:08:53.790Z,4.80
2018-10-06T07:11:23.025Z,2.10
2018-10-06T07:13:52.246Z,2.12
2018-10-06T07:16:21.479Z,2.83
2018-10-06T07:18:50.722Z,2.40
2018-10-06T07:21:19.935Z,2.47
2018-10-06T07:23:49.205Z,2.20
2018-10-06T07:26:18.451Z,2.07
2018-10-06T07:28:47.655Z,2.30
2018-10-06T07:31:16.882Z,2.07
2018-10-06T07:33:46.110Z,2.00
2018-10-06T07:41:13.845Z,1.90
2018-10-06T07:43:43.131Z,1.80
2018-10-06T07:46:12.364Z,1.82
2018-10-06T07:48:41.635Z,2.20
2018-10-06T07:51:10.866Z,2.87
2018-10-06T07:53:40.084Z,2.20
2018-10-06T07:56:09.303Z,2.50
2018-10-06T07:58:38.520Z,2.52
2018-10-06T08:01:07.827Z,2.90
2018-10-06T08:03:37.063Z,2.27
2018-10-06T08:06:06.298Z,2.70
2018-10-06T08:08:35.532Z,2.53
2018-10-06T08:11:04.770Z,2.37
2018-10-06T08:13:34.013Z,2.30
2018-10-06T08:16:03.248Z,2.50
2018-10-06T08:18:32.474Z,2.30
2018-10-06T08:21:01.719Z,2.10
2018-10-06T08:23:30.930Z,2.10
2018-10-06T08:26:00.158Z,2.10
2018-10-06T08:28:29.405Z,1.70
2018-10-06T08:30:58.615Z,2.20
2018-10-06T08:33:27.838Z,2.20
2018-10-06T08:35:57.052Z,2.40
2018-10-06T08:38:26.295Z,2.50
2018-10-06T08:40:55.522Z,1.90
2018-10-06T08:43:24.740Z,2.10
2018-10-06T08:45:53.962Z,2.20
2018-10-06T08:48:23.174Z,2.03
2018-10-06T08:50:52.459Z,2.00
2018-10-06T08:53:21.675Z,2.27
2018-10-06T08:55:50.964Z,2.37
2018-10-06T08:58:20.122Z,1.90
2018-10-06T09:00:49.352Z,2.00
2018-10-06T09:03:18.587Z,1.83
2018-10-06T09:05:47.802Z,1.80
2018-10-06T09:08:17.015Z,1.95
2018-10-06T09:10:46.308Z,1.80
2018-10-06T09:13:15.486Z,2.10
2018-10-06T09:15:44.703Z,1.60
2018-10-06T09:18:13.934Z,1.77
2018-10-06T09:20:43.155Z,1.60
2018-10-06T09:23:12.399Z,1.77
2018-10-06T09:25:41.632Z,1.40
2018-10-06T09:28:10.994Z,1.73
2018-10-06T09:30:40.263Z,1.70
2018-10-06T09:33:09.489Z,1.70
2018-10-06T09:35:38.730Z,1.55
2018-10-06T09:38:08.211Z,1.60
2018-10-06T09:40:37.483Z,1.50
2018-10-06T09:43:07.082Z,1.58
2018-10-06T09:45:37.559Z,1.60
2018-10-06T09:48:06.916Z,1.90
2018-10-06T09:50:36.166Z,1.80
2018-10-06T09:53:05.387Z,1.43
2018-10-06T09:55:34.622Z,1.70
2018-10-06T09:58:03.994Z,1.50
2018-10-06T10:00:38.349Z,1.55
2018-10-06T10:03:12.679Z,1.50
2018-10-06T10:05:49.566Z,1.80
2018-10-06T10:08:18.827Z,1.70
2018-10-06T10:10:49.047Z,1.90
2018-10-06T10:13:18.496Z,1.70
2018-10-06T10:15:47.808Z,1.57
2018-10-06T10:18:17.185Z,1.90
2018-10-06T10:20:46.351Z,1.90
2018-10-06T10:23:15.727Z,1.90
2018-10-06T10:25:45.018Z,1.80
2018-10-06T10:28:14.339Z,1.80
2018-10-06T10:30:43.534Z,2.00
2018-10-06T10:33:12.766Z,1.75
2018-10-06T10:35:42.003Z,1.80
2018-10-06T10:38:11.330Z,1.80
2018-10-06T10:40:40.639Z,1.92
2018-10-06T10:43:09.850Z,2.00
2018-10-06T10:45:39.082Z,1.57
2018-10-06T10:48:08.404Z,1.63
2018-10-06T10:50:37.711Z,2.00
2018-10-06T10:53:06.891Z,1.82
2018-10-06T10:55:36.191Z,2.10
2018-10-06T10:58:05.352Z,1.77
2018-10-06T11:00:34.617Z,1.92
2018-10-06T11:03:03.818Z,1.60
2018-10-06T11:05:33.041Z,2.10
2018-10-06T11:08:02.275Z,1.70
2018-10-06T11:10:31.502Z,2.03
2018-10-06T11:13:00.730Z,1.87
2018-10-06T11:15:29.969Z,1.95
2018-10-06T11:17:59.191Z,2.00
2018-10-06T11:20:28.451Z,2.15
2018-10-06T11:22:57.718Z,1.80
2018-10-06T11:25:26.964Z,2.10
2018-10-06T11:27:56.827Z,2.00
2018-10-06T11:30:26.068Z,2.00
2018-10-06T11:32:55.309Z,1.87
2018-10-06T11:35:24.544Z,1.90
2018-10-06T11:37:53.829Z,1.73
2018-10-06T11:40:23.011Z,1.70
2018-10-06T11:42:52.251Z,1.50
2018-10-06T11:45:21.485Z,1.70
2018-10-06T11:47:50.710Z,1.90
2018-10-06T11:50:20.011Z,1.80
2018-10-06T11:57:47.451Z,1.80
2018-10-06T12:00:16.920Z,2.00
2018-10-06T12:02:46.611Z,2.02
2018-10-06T12:05:15.845Z,1.95
2018-10-06T12:07:45.076Z,1.80
2018-10-06T12:10:14.355Z,1.57
2018-10-06T12:12:43.642Z,1.67
2018-10-06T12:15:12.905Z,1.75
2018-10-06T12:17:42.131Z,2.00
2018-10-06T12:20:11.342Z,1.80
2018-10-06T12:22:40.668Z,1.90
2018-10-06T12:25:09.915Z,1.98
2018-10-06T12:27:39.158Z,2.30
2018-10-06T12:30:08.384Z,1.80
2018-10-06T12:32:37.723Z,1.80
2018-10-06T12:35:07.019Z,1.63
2018-10-06T12:37:36.183Z,1.62
2018-10-06T12:40:05.478Z,1.90
2018-10-06T12:42:34.711Z,1.90
2018-10-06T12:45:04.007Z,1.87
2018-10-06T12:47:33.222Z,1.92
2018-10-06T12:50:02.511Z,1.77
2018-10-06T12:52:31.965Z,1.90
2018-10-06T12:55:01.191Z,2.00
2018-10-06T12:57:30.622Z,1.93
2018-10-06T12:59:59.909Z,1.70
2018-10-06T13:02:29.062Z,1.85
2018-10-06T13:04:58.322Z,1.90
2018-10-06T13:07:27.552Z,1.80
2018-10-06T13:09:56.816Z,1.80
2018-10-06T13:12:26.031Z,1.92
2018-10-06T13:14:55.266Z,2.00
2018-10-06T13:17:24.510Z,1.70
2018-10-06T13:19:53.750Z,1.73
2018-10-06T13:22:22.967Z,1.80
2018-10-06T13:24:52.218Z,1.98
2018-10-06T13:27:21.550Z,1.80
2018-10-06T13:29:50.769Z,1.80
2018-10-06T13:32:19.999Z,1.97
2018-10-06T13:34:49.232Z,1.90
2018-10-06T13:37:18.467Z,2.00
2018-10-06T13:39:47.715Z,1.90
2018-10-06T13:42:16.947Z,1.70
2018-10-06T13:44:46.289Z,2.22
2018-10-06T13:47:15.502Z,1.93
2018-10-06T13:49:46.524Z,1.85
2018-10-06T13:52:15.776Z,1.60
2018-10-06T13:54:44.994Z,2.00
2018-10-06T13:57:14.237Z,1.70
2018-10-06T13:59:43.466Z,1.57
2018-10-06T14:02:12.729Z,1.82
2018-10-06T14:04:41.910Z,1.90
2018-10-06T14:07:11.129Z,1.70
2018-10-06T14:09:40.354Z,2.10
2018-10-06T14:12:09.851Z,1.70
2018-10-06T14:14:39.083Z,1.70
2018-10-06T14:17:08.302Z,1.85
2018-10-06T14:19:37.546Z,1.90
2018-10-06T14:22:06.800Z,1.80
2018-10-06T14:24:36.045Z,2.08
2018-10-06T14:27:05.362Z,1.60
2018-10-06T14:29:34.707Z,1.85
2018-10-06T14:32:03.952Z,1.90
2018-10-06T14:34:33.179Z,1.67
2018-10-06T14:37:02.407Z,1.82
2018-10-06T14:39:31.650Z,3.80
2018-10-06T14:42:00.906Z,2.10
2018-10-06T14:44:30.252Z,3.10
2018-10-06T14:46:59.424Z,1.70
2018-10-06T14:49:28.738Z,2.17
2018-10-06T14:51:58.035Z,1.72
2018-10-06T14:54:27.260Z,2.00
2018-10-06T14:56:56.558Z,1.60
2018-10-06T14:59:25.753Z,1.80
2018-10-06T15:01:56.214Z,1.72
2018-10-06T15:04:25.640Z,2.40
2018-10-06T15:06:54.850Z,1.77
2018-10-06T15:09:24.091Z,1.63
2018-10-06T15:11:53.314Z,2.10
2018-10-06T15:14:22.562Z,2.17
2018-10-06T15:16:51.811Z,2.00
2018-10-06T15:19:21.046Z,2.13
2018-10-06T15:21:50.281Z,2.10
2018-10-06T15:24:19.558Z,2.00
2018-10-06T15:26:48.858Z,1.72
2018-10-06T15:29:18.100Z,1.87
2018-10-06T15:31:47.365Z,1.70
2018-10-06T15:34:16.727Z,1.73
2018-10-06T15:36:46.254Z,1.60
2018-10-06T15:39:15.461Z,1.57
2018-10-06T15:41:44.639Z,1.70
2018-10-06T15:44:13.869Z,1.53
2018-10-06T15:46:43.094Z,1.80
2018-10-06T15:49:13.303Z,1.80
2018-10-06T15:51:42.543Z,1.82
2018-10-06T15:54:11.771Z,1.72
2018-10-06T15:56:40.998Z,1.80
2018-10-06T15:59:10.251Z,1.80
2018-10-06T16:01:39.471Z,1.40
2018-10-06T16:04:08.715Z,1.70
2018-10-06T16:06:37.938Z,1.60
2018-10-06T16:09:07.890Z,1.93
2018-10-06T16:11:37.463Z,1.80
2018-10-06T16:14:06.800Z,1.80
2018-10-06T16:16:36.102Z,2.20
2018-10-06T16:19:05.336Z,2.03
2018-10-06T16:21:34.606Z,1.82
2018-10-06T16:24:03.814Z,2.10
2018-10-06T16:26:33.071Z,1.63
2018-10-06T16:29:02.317Z,1.87
2018-10-06T16:31:31.548Z,1.97
2018-10-06T16:34:01.108Z,2.30
2018-10-06T16:36:30.429Z,2.30
2018-10-06T16:38:59.748Z,2.07
2018-10-06T16:41:29.153Z,2.00
2018-10-06T16:43:58.878Z,1.93
2018-10-06T16:46:28.251Z,2.23
2018-10-06T16:48:57.759Z,1.70
2018-10-06T16:51:27.090Z,1.83
2018-10-06T16:53:56.564Z,1.97
2018-10-06T16:56:25.907Z,1.97
2018-10-06T16:58:55.299Z,2.07
2018-10-06T17:01:24.677Z,2.60
2018-10-06T17:03:54.335Z,2.37
2018-10-06T17:06:23.698Z,2.23
2018-10-06T17:08:53.048Z,2.50
2018-10-06T17:11:22.416Z,3.57
2018-10-06T17:13:51.831Z,3.20
2018-10-06T17:16:21.324Z,2.97
2018-10-06T17:18:50.729Z,2.90
2018-10-06T17:21:20.098Z,3.00
2018-10-06T17:23:49.411Z,2.60
2018-10-06T17:26:18.769Z,3.10
2018-10-06T17:28:48.136Z,2.40
2018-10-06T17:31:17.626Z,2.00
2018-10-06T17:33:46.867Z,2.00
2018-10-06T17:36:16.274Z,2.20
2018-10-06T17:38:45.775Z,2.10
2018-10-06T17:41:15.133Z,2.57
2018-10-06T17:43:44.587Z,2.40
2018-10-06T17:46:13.987Z,2.80
2018-10-06T17:48:43.347Z,2.50
2018-10-06T17:51:12.736Z,4.53
2018-10-06T17:53:42.137Z,5.90
2018-10-06T17:56:11.504Z,4.90
2018-10-06T17:58:40.913Z,4.40
2018-10-06T18:01:10.250Z,4.73
2018-10-06T18:03:39.611Z,3.93
2018-10-06T18:06:08.979Z,9.77
2018-10-06T18:08:38.357Z,4.30
2018-10-06T18:11:07.927Z,3.47
2018-10-06T18:13:37.307Z,29.93
2018-10-06T18:16:06.750Z,12.10
2018-10-06T18:18:36.125Z,9.60
2018-10-06T18:21:05.583Z,4.70
2018-10-06T18:23:34.901Z,4.00
2018-10-06T18:26:04.253Z,4.03
2018-10-06T18:28:33.690Z,3.67
2018-10-06T18:31:03.075Z,3.25
2018-10-06T18:33:32.707Z,3.03
2018-10-06T18:36:03.377Z,3.40
2018-10-06T18:38:32.757Z,3.10
2018-10-06T18:41:02.122Z,3.00
2018-10-06T18:43:31.568Z,3.07
2018-10-06T18:46:00.839Z,2.83
2018-10-06T18:48:30.220Z,2.63
2018-10-06T18:50:59.590Z,3.10
2018-10-06T18:53:28.942Z,3.20
2018-10-06T18:55:58.313Z,3.77
2018-10-06T18:58:27.749Z,4.50
2018-10-06T19:00:57.153Z,3.70
2018-10-06T19:03:26.606Z,3.10
2018-10-06T19:05:55.977Z,3.20
2018-10-06T19:08:25.385Z,4.07
2018-10-06T19:10:54.952Z,10.03
2018-10-06T19:13:24.319Z,6.43
2018-10-06T19:15:53.706Z,8.07
2018-10-06T19:18:23.117Z,9.43
2018-10-06T19:20:52.614Z,9.40
2018-10-06T19:23:21.943Z,8.97
2018-10-06T19:25:51.423Z,8.10
2018-10-06T19:28:20.739Z,6.03
2018-10-06T19:30:50.140Z,6.70
2018-10-06T19:33:19.491Z,6.13
2018-10-06T19:35:48.854Z,6.87
2018-10-06T19:38:18.167Z,6.80
2018-10-06T19:40:47.531Z,5.67
2018-10-06T19:43:16.930Z,5.80
2018-10-06T19:45:46.389Z,4.83
2018-10-06T19:48:15.785Z,5.03
2018-10-06T19:50:45.201Z,5.20
2018-10-06T19:53:14.643Z,5.43
2018-10-06T19:55:44.024Z,5.40
2018-10-06T19:58:13.373Z,5.13
2018-10-06T20:00:42.807Z,5.20
2018-10-06T20:03:12.169Z,7.57
2018-10-06T20:05:41.577Z,5.90
2018-10-06T20:08:10.945Z,5.53
2018-10-06T20:10:40.338Z,5.63
2018-10-06T20:13:09.691Z,5.67
2018-10-06T20:15:39.032Z,5.50
2018-10-06T20:18:08.429Z,5.57
2018-10-06T20:20:37.800Z,5.40
2018-10-06T20:23:07.337Z,5.63
2018-10-06T20:25:36.687Z,4.90
2018-10-06T20:28:06.137Z,5.60
2018-10-06T20:30:35.547Z,5.30
2018-10-06T20:33:05.111Z,5.00
2018-10-06T20:35:34.535Z,5.33
2018-10-06T20:38:04.044Z,5.67
2018-10-06T20:40:33.442Z,5.30
2018-10-06T20:43:02.890Z,4.97
2018-10-06T20:45:32.350Z,4.90
2018-10-06T20:48:01.679Z,5.33
2018-10-06T20:50:31.167Z,4.93
2018-10-06T20:53:00.628Z,5.00
2018-10-06T20:55:30.111Z,4.97
2018-10-06T20:57:59.473Z,6.07
2018-10-06T21:00:29.081Z,6.20
2018-10-06T21:02:58.511Z,6.30
2018-10-06T21:05:28.049Z,6.43
2018-10-06T21:07:57.622Z,5.50
2018-10-06T21:10:27.058Z,5.60
2018-10-06T21:12:56.623Z,5.43
2018-10-06T21:15:26.139Z,5.17
2018-10-06T21:17:55.623Z,4.05
2018-10-06T21:20:25.137Z,4.43
2018-10-06T21:22:54.640Z,5.20
2018-10-06T21:25:23.990Z,6.23
2018-10-06T21:27:53.506Z,5.27
2018-10-06T21:30:23.012Z,5.30
2018-10-06T21:32:52.829Z,5.60
2018-10-06T21:35:22.319Z,5.60
2018-10-06T21:37:51.924Z,5.27
2018-10-06T21:40:21.679Z,5.20
2018-10-06T21:42:51.116Z,4.80
2018-10-06T21:45:20.573Z,5.03
2018-10-06T21:47:49.967Z,5.00
2018-10-06T21:50:19.433Z,4.87
2018-10-06T21:52:48.855Z,5.13
2018-10-06T21:55:18.231Z,5.10
2018-10-06T21:57:47.627Z,5.17
2018-10-06T22:00:16.967Z,5.57
2018-10-06T22:02:46.670Z,4.60
2018-10-06T22:05:16.083Z,4.60
2018-10-06T22:07:45.589Z,4.90
2018-10-06T22:10:14.992Z,4.80
2018-10-06T22:12:44.364Z,4.17
2018-10-06T22:15:13.809Z,4.83
2018-10-06T22:17:43.055Z,5.03
2018-10-06T22:20:12.383Z,5.27
2018-10-06T22:22:41.648Z,5.00
2018-10-06T22:25:11.057Z,5.50
2018-10-06T22:27:40.590Z,5.53
2018-10-06T22:30:10.048Z,6.10
2018-10-06T22:32:40.472Z,6.17
2018-10-06T22:35:09.837Z,6.40
2018-10-06T22:37:39.255Z,6.00
2018-10-06T22:40:08.896Z,5.92
2018-10-06T22:42:38.315Z,5.80
2018-10-06T22:45:07.851Z,5.13
2018-10-06T22:47:37.195Z,5.57
2018-10-06T22:50:07.254Z,5.63
2018-10-06T22:52:36.905Z,5.73
2018-10-06T22:55:06.372Z,6.10
2018-10-06T22:57:35.882Z,7.33
2018-10-06T23:00:05.379Z,6.30
2018-10-06T23:02:35.058Z,6.40
2018-10-06T23:05:04.433Z,6.20
2018-10-06T23:07:33.772Z,6.27
2018-10-06T23:10:03.259Z,6.03
2018-10-06T23:12:32.601Z,6.13
2018-10-06T23:15:02.003Z,5.90
2018-10-06T23:17:31.401Z,5.90
2018-10-06T23:20:00.766Z,5.72
2018-10-06T23:22:30.179Z,5.50
2018-10-06T23:24:59.460Z,4.87
2018-10-06T23:27:29.105Z,4.70
2018-10-06T23:29:58.488Z,4.80
2018-10-06T23:32:27.842Z,5.27
2018-10-06T23:34:57.284Z,5.17
2018-10-06T23:37:26.647Z,5.00
2018-10-06T23:39:55.955Z,5.00
2018-10-06T23:42:25.255Z,5.37
2018-10-06T23:44:54.600Z,5.07
2018-10-06T23:47:23.971Z,4.87
2018-10-06T23:49:53.358Z,5.10
2018-10-06T23:52:22.683Z,4.90
2018-10-06T23:54:52.007Z,4.95
2018-10-06T23:57:21.389Z,5.77
2018-10-06T23:59:50.723Z,5.67
